ロメ の空港の天気 - METARとTAF

ロメ空港 ( DXXX / LFW ) - トーゴ ロメ
飛行場実況気象(Metar)
観測時間07/22 18:00 GMT (07/22 18:00 UTC)
風向・風速南南西 4m/s
視程10km以上
天気現象
少しの雲 雲底高度 370m
全天の4割程度の雲 雲底高度 910m
気温26℃
湿度84%
気圧1013hPa
METARDXXX 221800Z 21007KT 180V240 9999 FEW012 SCT030 26/23 Q1013 NOSIG
過去の天気等 Google飛行場航空写真 Wunderground天気予報

過去48時間のMETAR

飛行場予報(TAF)
発表時間: 7/22 17:00 GMT (7/22 17:00 UTC)
予報対象時間: 22日18時 GMT ~ 24日0時 GMT
風向・風速西 3m/s
視程10km以上
全天の4割程度の雲 雲底高度 300m
23日8時 GMT ~ 23日10時 GMT に徐々に
風向・風速南南西 5m/s
TAF DXXX 221700Z 2218/2324 26006KT 9999 SCT010
BECMG 2308/2310 20010KT